Time;durP1;ratioP1;P1;durP2;ratioP2;P2;SDS_P1;SDS_P2;PMS_P1;PMS_P2;Temp;Humidity;BMP_temperature;BMP_pressure;BME280_temperature;BME280_humidity;BME280_pressure;Samples;Min_cycle;Max_cycle;Signal;HPM_P1;HPM_P2
2023/01/20 01:14:58;;;;;;;29.30;10.50;;;;;;;10.94;81.24;101329.02;105027;1295;23037;-57
2023/01/20 01:17:25;;;;;;;27.70;10.00;;;;;;;11.04;80.38;101334.09;106255;1279;24390;-57
2023/01/20 01:19:53;;;;;;;26.40;8.90;;;;;;;11.13;79.84;101334.65;105928;1287;25476;-57
2023/01/20 01:22:20;;;;;;;19.60;9.20;;;;;;;11.21;79.21;101333.49;105800;1283;242357;-57
2023/01/20 01:24:47;;;;;;;27.00;9.50;;;;;;;11.29;78.72;101331.62;106386;1264;24221;-59
2023/01/20 01:27:14;;;;;;;26.80;9.00;;;;;;;11.37;78.21;101329.40;105965;1278;24279;-60
2023/01/20 01:29:41;;;;;;;33.10;10.80;;;;;;;11.45;77.72;101328.41;106342;1285;25375;-59
2023/01/20 01:32:08;;;;;;;33.10;8.80;;;;;;;11.52;77.31;101327.95;106331;1280;24230;-59
2023/01/20 01:34:35;;;;;;;27.00;8.70;;;;;;;11.59;76.74;101317.58;106368;1280;25366;-60
2023/01/20 01:37:02;;;;;;;21.40;8.50;;;;;;;11.65;76.24;101319.75;105938;1277;22680;-60
2023/01/20 01:39:29;;;;;;;32.80;9.70;;;;;;;11.72;75.88;101314.78;106340;1282;23871;-59
2023/01/20 01:41:56;;;;;;;24.60;8.20;;;;;;;11.78;75.40;101309.99;104699;1283;1004071;-59
2023/01/20 01:44:25;;;;;;;24.10;8.50;;;;;;;11.83;74.92;101309.04;105915;1283;25484;-59
2023/01/20 01:46:52;;;;;;;22.70;9.10;;;;;;;11.87;74.51;101312.77;106331;1280;24406;-59
2023/01/20 01:49:22;;;;;;;20.30;8.30;;;;;;;11.91;74.07;101313.22;106375;1279;25456;-59
2023/01/20 01:52:11;;;;;;;25.00;9.40;;;;;;;11.95;73.74;101314.89;106068;1284;22656;-59
2023/01/20 01:54:39;;;;;;;25.70;9.50;;;;;;;11.99;73.33;101320.54;106307;1279;25429;-59
2023/01/20 01:57:06;;;;;;;23.10;7.50;;;;;;;11.99;73.19;101323.34;106309;1278;22548;-59
2023/01/20 01:59:34;;;;;;;22.70;8.30;;;;;;;12.06;72.84;101323.89;106707;1273;25477;-59
2023/01/20 02:02:02;;;;;;;20.90;8.60;;;;;;;12.09;72.54;101322.96;106336;1277;22760;-59
2023/01/20 02:04:32;;;;;;;36.70;8.90;;;;;;;12.13;72.37;101330.87;106618;1278;25372;-59
2023/01/20 02:07:03;;;;;;;21.90;6.70;;;;;;;12.19;72.05;101331.12;106388;1278;23002;-60
2023/01/20 02:09:30;;;;;;;20.40;6.40;;;;;;;12.24;71.82;101330.50;106448;1270;24276;-59
2023/01/20 02:11:59;;;;;;;22.50;8.00;;;;;;;12.30;71.65;101323.08;106826;1270;25555;-59
2023/01/20 02:14:35;;;;;;;26.20;7.60;;;;;;;12.39;71.17;101318.20;106685;1276;22541;-59
2023/01/20 02:20:49;;;;;;;19.60;7.00;;;;;;;12.59;70.03;101309.60;103587;1298;547736;-58
2023/01/20 02:23:53;;;;;;;18.10;7.10;;;;;;;12.63;69.66;101314.73;106296;1282;22635;-58
2023/01/20 02:26:39;;;;;;;21.20;7.30;;;;;;;12.67;69.34;101322.13;106005;1285;25495;-57
2023/01/20 02:29:24;;;;;;;19.00;7.40;;;;;;;12.72;69.09;101317.33;106202;1282;25584;-58
2023/01/20 02:32:15;;;;;;;19.80;6.40;;;;;;;12.76;68.84;101317.92;106229;1282;25362;-57
2023/01/20 02:34:51;;;;;;;18.20;6.40;;;;;;;12.79;68.51;101315.79;106102;1272;224904;-57
2023/01/20 02:37:23;;;;;;;21.20;6.60;;;;;;;12.80;68.29;101315.57;106735;1272;25483;-58
2023/01/20 02:39:59;;;;;;;14.90;5.60;;;;;;;12.79;68.26;101311.07;106734;1272;25365;-58
2023/01/20 02:42:51;;;;;;;19.20;5.90;;;;;;;12.79;68.16;101303.76;106728;1270;25380;-58
2023/01/20 02:45:25;;;;;;;24.90;6.40;;;;;;;12.79;68.08;101296.29;106667;1271;25485;-58
2023/01/20 02:47:54;;;;;;;17.20;6.20;;;;;;;12.79;67.99;101304.45;106736;1270;22530;-58
2023/01/20 02:50:47;;;;;;;25.10;7.00;;;;;;;12.78;67.92;101296.64;106669;1272;25373;-58
2023/01/20 02:53:14;;;;;;;14.60;6.90;;;;;;;12.77;67.91;101296.85;106608;1270;22517;-57
2023/01/20 02:55:47;;;;;;;22.40;6.30;;;;;;;12.75;67.89;101301.59;106687;1275;22537;-57
2023/01/20 02:58:54;;;;;;;19.20;6.40;;;;;;;12.75;67.93;101297.77;106729;1277;22542;-57
2023/01/20 03:01:24;;;;;;;22.20;6.10;;;;;;;12.74;67.81;101296.92;106842;1260;22632;-57
2023/01/20 03:03:52;;;;;;;22.00;5.60;;;;;;;12.70;67.86;101295.08;106782;1272;22586;-57
2023/01/20 03:06:21;;;;;;;19.70;6.00;;;;;;;12.69;67.92;101292.69;106772;1275;22519;-57
2023/01/20 03:08:50;;;;;;;18.80;6.30;;;;;;;12.68;68.01;101292.52;106529;1276;22628;-57
2023/01/20 03:11:17;;;;;;;15.90;5.70;;;;;;;12.69;67.93;101293.90;106852;1271;24278;-57
2023/01/20 03:13:52;;;;;;;20.90;5.50;;;;;;;12.70;67.71;101301.19;106699;1277;24272;-57
2023/01/20 03:16:21;;;;;;;19.40;6.10;;;;;;;12.69;67.62;101296.16;106803;1273;24278;-57
2023/01/20 03:18:49;;;;;;;11.30;4.90;;;;;;;12.68;67.67;101298.95;106680;1273;25578;-56
2023/01/20 03:21:16;;;;;;;15.10;5.00;;;;;;;12.68;67.66;101300.35;106817;1273;25339;-57
2023/01/20 03:23:47;;;;;;;14.30;4.90;;;;;;;12.70;67.58;101301.89;106821;1270;22563;-57
2023/01/20 03:26:15;;;;;;;15.00;5.20;;;;;;;12.71;67.45;101302.38;106784;1272;22530;-56
2023/01/20 03:28:43;;;;;;;24.70;7.30;;;;;;;12.71;67.38;101303.94;106744;1264;25356;-56
2023/01/20 03:31:15;;;;;;;15.30;5.30;;;;;;;12.70;67.33;101299.44;106614;1262;25433;-57
2023/01/20 03:33:43;;;;;;;21.00;5.50;;;;;;;12.70;67.28;101299.44;106838;1272;22526;-57
2023/01/20 03:36:10;;;;;;;12.50;5.10;;;;;;;12.70;67.24;101302.74;106667;1277;25328;-57
2023/01/20 03:38:37;;;;;;;16.20;4.80;;;;;;;12.72;67.14;101307.56;106797;1275;22529;-57
2023/01/20 03:41:19;;;;;;;14.60;4.60;;;;;;;12.74;67.02;101307.70;106762;1272;22522;-56
2023/01/20 03:43:52;;;;;;;;;;;;;;;12.76;66.83;101306.27;106740;1270;25526;-57
2023/01/20 03:46:26;;;;;;;18.60;4.80;;;;;;;12.76;66.65;101302.79;106701;1273;25440;-57
2023/01/20 03:49:20;;;;;;;10.30;3.70;;;;;;;12.74;66.59;101309.27;106388;1275;25485;-57
2023/01/20 03:51:53;;;;;;;19.90;5.40;;;;;;;12.73;66.55;101308.42;106761;1272;22766;-57
2023/01/20 03:54:25;;;;;;;17.80;5.90;;;;;;;12.74;66.37;101308.41;106880;1272;24303;-57
2023/01/20 03:57:03;;;;;;;14.40;4.70;;;;;;;12.75;66.24;101303.69;106666;1270;22527;-57
2023/01/20 03:59:34;;;;;;;16.00;4.30;;;;;;;12.75;66.17;101306.83;106548;1275;24255;-57
2023/01/20 04:02:01;;;;;;;13.00;5.50;;;;;;;12.74;66.17;101311.18;106826;1272;25402;-57
2023/01/20 07:10:02;;;;;;;15.80;5.60;;;;;;;10.29;82.14;101359.55;104882;1284;558912;-58
2023/01/20 07:12:29;;;;;;;14.30;5.20;;;;;;;11.43;75.55;101363.52;106345;1282;24358;-57
2023/01/20 07:14:56;;;;;;;19.30;6.00;;;;;;;11.66;74.22;101366.83;106313;1280;25357;-58
2023/01/20 07:17:23;;;;;;;17.80;6.00;;;;;;;11.81;73.42;101367.45;106248;1280;22545;-57
2023/01/20 07:19:50;;;;;;;14.90;5.90;;;;;;;11.94;72.94;101364.80;106190;1287;25523;-58
2023/01/20 07:22:17;;;;;;;25.20;5.90;;;;;;;12.09;72.42;101365.73;106270;1278;217885;-58
2023/01/20 07:24:44;;;;;;;21.70;5.40;;;;;;;12.27;71.97;101362.28;106257;1280;25369;-59
2023/01/20 07:27:11;;;;;;;16.80;5.60;;;;;;;12.46;71.35;101358.78;106348;1280;25439;-58
2023/01/20 07:29:39;;;;;;;12.70;4.50;;;;;;;12.65;70.53;101359.95;106328;1279;25393;-58
2023/01/20 07:32:06;;;;;;;17.70;5.70;;;;;;;12.82;69.75;101363.23;106367;1278;22552;-57
2023/01/20 07:34:33;;;;;;;13.60;5.00;;;;;;;12.96;68.98;101355.60;106283;1278;25507;-58
2023/01/20 07:37:01;;;;;;;15.20;5.20;;;;;;;13.09;68.39;101355.02;106193;1279;24873;-57
2023/01/20 07:39:28;;;;;;;10.50;4.90;;;;;;;13.18;67.86;101356.55;106184;1285;25508;-57
2023/01/20 07:41:55;;;;;;;13.10;5.30;;;;;;;13.28;67.39;101352.68;106237;1278;24218;-57
2023/01/20 07:44:22;;;;;;;15.40;5.40;;;;;;;13.35;66.95;101350.23;106230;1278;25479;-58
2023/01/20 07:46:50;;;;;;;16.00;6.00;;;;;;;13.43;66.44;101355.62;106671;1273;25341;-57
2023/01/20 07:49:17;;;;;;;15.80;4.80;;;;;;;13.48;66.10;101350.61;106993;1271;25446;-58
2023/01/20 07:51:44;;;;;;;13.90;4.80;;;;;;;13.53;65.85;101349.79;106761;1269;25412;-57
2023/01/20 07:54:11;;;;;;;15.30;5.70;;;;;;;13.58;65.49;101348.28;106793;1270;25340;-57
2023/01/20 07:56:38;;;;;;;12.50;5.00;;;;;;;13.61;65.24;101344.54;106772;1270;25411;-58
2023/01/20 07:59:05;;;;;;;16.40;5.50;;;;;;;13.65;65.04;101348.63;106744;1273;25408;-58
2023/01/20 08:01:33;;;;;;;14.50;5.00;;;;;;;13.69;64.82;101352.70;106787;1270;25378;-57
2023/01/20 08:04:00;;;;;;;11.60;4.60;;;;;;;13.71;64.56;101348.64;106747;1272;22519;-57
2023/01/20 08:06:27;;;;;;;15.20;4.80;;;;;;;13.73;64.40;101345.45;106696;1275;25440;-57
2023/01/20 08:08:54;;;;;;;16.80;5.00;;;;;;;13.75;64.33;101348.54;106827;1270;25402;-57
2023/01/20 08:11:25;;;;;;;13.60;4.30;;;;;;;13.77;64.13;101356.52;107159;1267;25356;-57
2023/01/20 08:13:52;;;;;;;12.20;4.50;;;;;;;13.80;64.06;101366.73;107228;1267;25321;-58
2023/01/20 08:16:19;;;;;;;13.60;4.70;;;;;;;13.82;63.98;101366.50;107116;1267;25418;-59
2023/01/20 08:18:46;;;;;;;10.90;4.80;;;;;;;13.83;63.93;101367.16;107064;1270;22534;-57
2023/01/20 08:21:19;;;;;;;10.80;4.70;;;;;;;13.85;63.95;101365.55;107155;1266;25386;-57
2023/01/20 08:23:46;;;;;;;12.70;4.70;;;;;;;13.87;63.80;101365.14;107054;1266;24310;-57
2023/01/20 08:26:13;;;;;;;16.50;4.60;;;;;;;13.89;63.72;101365.27;106880;1269;24396;-57
2023/01/20 08:28:40;;;;;;;19.40;5.30;;;;;;;13.92;63.67;101370.08;106905;1269;25466;-57
2023/01/20 08:31:09;;;;;;;13.90;5.80;;;;;;;13.94;63.57;101368.96;106873;1270;22520;-57
2023/01/20 08:33:36;;;;;;;17.90;4.70;;;;;;;13.97;63.41;101368.04;107171;1267;23246;-57
2023/01/20 08:36:09;;;;;;;13.60;4.50;;;;;;;13.98;63.26;101362.43;107088;1266;22650;-57
2023/01/20 08:38:37;;;;;;;14.50;5.20;;;;;;;14.00;63.06;101360.64;107135;1266;24239;-57
2023/01/20 08:41:12;;;;;;;20.30;6.40;;;;;;;14.02;63.06;101354.47;106976;1267;24373;-57
2023/01/20 08:43:40;;;;;;;15.30;5.30;;;;;;;14.04;63.00;101355.13;107135;1267;26282;-57
2023/01/20 08:46:09;;;;;;;14.70;4.70;;;;;;;14.04;62.98;101354.41;107062;1267;25517;-56
2023/01/20 08:48:38;;;;;;;14.20;4.50;;;;;;;14.06;62.90;101357.16;107095;1267;24202;-56
2023/01/20 08:51:07;;;;;;;15.40;5.50;;;;;;;14.07;62.76;101355.04;107136;1267;24274;-57
2023/01/20 08:53:34;;;;;;;21.30;5.80;;;;;;;14.08;62.58;101352.73;107039;1270;23864;-57
2023/01/20 08:56:02;;;;;;;20.40;6.80;;;;;;;14.09;62.61;101347.31;107218;1266;25528;-57
2023/01/20 08:58:29;;;;;;;12.60;4.90;;;;;;;14.09;62.49;101347.29;106889;1267;25359;-57
2023/01/20 09:00:57;;;;;;;14.00;5.50;;;;;;;14.10;62.46;101350.58;107139;1266;25396;-57
2023/01/20 09:03:24;;;;;;;8.70;4.10;;;;;;;14.10;62.30;101351.99;107091;1267;25303;-57
2023/01/20 09:05:51;;;;;;;13.40;4.40;;;;;;;14.08;62.24;101351.86;107120;1268;25500;-57
2023/01/20 09:08:19;;;;;;;14.20;4.80;;;;;;;14.07;62.22;101341.94;107089;1266;25347;-57
2023/01/20 09:10:46;;;;;;;12.20;4.90;;;;;;;14.07;62.26;101339.68;107032;1267;25310;-57
2023/01/20 09:13:13;;;;;;;13.20;5.10;;;;;;;14.07;62.24;101335.66;106786;1275;22529;-57
2023/01/20 09:15:40;;;;;;;15.60;4.70;;;;;;;14.07;62.24;101331.83;107180;1266;25402;-57
2023/01/20 09:18:07;;;;;;;12.50;5.10;;;;;;;14.06;62.22;101330.63;107122;1266;25325;-57
2023/01/20 09:20:35;;;;;;;17.10;4.70;;;;;;;13.93;62.73;101323.30;107084;1270;25332;-57
2023/01/20 09:23:03;;;;;;;13.80;5.10;;;;;;;13.91;62.84;101320.56;106462;1266;1003270;-57
2023/01/20 09:25:30;;;;;;;15.50;4.60;;;;;;;13.91;62.82;101313.78;106409;1267;1003795;-57
2023/01/20 09:28:00;;;;;;;14.10;5.20;;;;;;;13.92;62.80;101309.56;107096;1270;25408;-57
2023/01/20 09:30:27;;;;;;;16.40;4.90;;;;;;;13.91;63.01;101305.73;107133;1266;25420;-57
2023/01/20 09:32:56;;;;;;;14.30;5.30;;;;;;;13.93;63.04;101299.23;107019;1266;25408;-57
2023/01/20 09:35:24;;;;;;;13.90;4.90;;;;;;;13.96;63.10;101293.05;107012;1270;25330;-59
2023/01/20 09:43:53;;;;;;;15.80;6.30;;;;;;;14.13;62.89;101293.98;107086;1267;25356;-57
2023/01/20 09:46:29;;;;;;;15.30;6.10;;;;;;;14.19;62.72;101288.21;106996;1266;25369;-57
2023/01/20 09:54:49;;;;;;;17.30;5.00;;;;;;;14.36;62.43;101282.52;107051;1267;22523;-57
2023/01/20 09:57:17;;;;;;;13.20;5.10;;;;;;;14.42;62.33;101276.94;107273;1266;24636;-58
2023/01/20 09:59:58;;;;;;;17.60;5.90;;;;;;;14.46;62.17;101274.02;106880;1270;25415;-59
2023/01/20 10:02:32;;;;;;;11.80;4.70;;;;;;;14.49;61.85;101269.02;107059;1266;22535;-59
2023/01/20 10:05:04;;;;;;;17.60;5.90;;;;;;;14.51;61.66;101265.65;107144;1266;26734;-57
2023/01/20 10:07:40;;;;;;;17.50;5.60;;;;;;;14.52;61.61;101257.95;107048;1266;25331;-58
2023/01/20 10:10:09;;;;;;;18.00;6.20;;;;;;;14.50;61.61;101252.77;107089;1267;25347;-57
2023/01/20 10:12:39;;;;;;;16.80;6.10;;;;;;;14.49;61.59;101249.83;107103;1270;22523;-59
2023/01/20 10:15:36;;;;;;;13.10;5.40;;;;;;;14.50;61.53;101252.45;106424;1266;1003647;-58
2023/01/20 10:18:05;;;;;;;13.50;4.60;;;;;;;14.48;61.40;101248.64;106498;1273;25369;-60
2023/01/20 10:20:38;;;;;;;16.20;6.00;;;;;;;14.48;61.47;101243.77;106334;1274;22573;-59
2023/01/20 10:23:09;;;;;;;19.60;5.30;;;;;;;14.48;61.39;101231.02;106550;1273;25520;-59
2023/01/20 10:25:44;;;;;;;14.40;5.50;;;;;;;14.47;61.56;101225.98;106655;1273;24366;-59
2023/01/20 10:28:20;;;;;;;20.50;6.00;;;;;;;14.46;61.51;101226.73;106585;1273;25350;-59
2023/01/20 10:30:47;;;;;;;19.80;5.40;;;;;;;14.45;61.62;101222.58;106620;1274;24278;-59
2023/01/20 10:33:19;;;;;;;12.70;4.90;;;;;;;14.52;61.40;101226.01;106413;1276;25336;-58
2023/01/20 10:35:48;;;;;;;12.30;5.40;;;;;;;14.60;61.27;101220.02;106580;1274;22540;-57
2023/01/20 10:38:30;;;;;;;13.40;5.20;;;;;;;14.64;61.19;101217.06;106652;1273;22649;-58
2023/01/20 10:41:17;;;;;;;16.10;6.00;;;;;;;14.66;61.02;101212.64;106584;1273;25404;-58
2023/01/20 10:43:46;;;;;;;16.60;4.90;;;;;;;14.67;60.97;101210.00;106691;1273;23061;-57
2023/01/20 10:46:14;;;;;;;14.80;5.30;;;;;;;14.67;61.00;101215.05;106549;1273;25398;-59
2023/01/20 10:48:45;;;;;;;17.10;6.00;;;;;;;14.67;61.01;101212.08;106642;1273;25401;-57
2023/01/20 10:51:21;;;;;;;15.10;5.70;;;;;;;14.68;60.75;101213.11;106507;1273;25500;-57
2023/01/20 10:53:58;;;;;;;15.00;5.70;;;;;;;14.66;60.78;101216.48;106569;1273;25305;-59
2023/01/20 10:56:35;;;;;;;17.80;6.10;;;;;;;14.61;60.76;101218.21;107149;1266;24241;-59
2023/01/20 10:59:13;;;;;;;21.00;6.20;;;;;;;14.56;60.84;101212.95;107204;1273;25416;-58
2023/01/20 11:01:41;;;;;;;18.80;6.00;;;;;;;14.52;60.76;101214.48;107082;1267;22535;-58
2023/01/20 11:04:19;;;;;;;14.30;5.50;;;;;;;14.46;60.80;101212.05;107103;1267;25334;-59
2023/01/20 11:06:48;;;;;;;11.70;5.20;;;;;;;14.42;60.80;101216.20;107097;1270;22552;-57
2023/01/20 11:09:29;;;;;;;11.10;5.00;;;;;;;14.36;60.89;101208.85;107152;1267;22522;-58
2023/01/20 11:11:56;;;;;;;12.90;4.90;;;;;;;14.30;61.00;101198.40;107065;1266;22520;-58
2023/01/20 11:14:24;;;;;;;11.70;4.90;;;;;;;14.24;61.10;101197.52;106801;1267;22791;-60
2023/01/20 11:16:55;;;;;;;15.50;5.30;;;;;;;14.17;61.31;101202.44;107018;1266;25359;-57
2023/01/20 11:19:22;;;;;;;14.40;5.80;;;;;;;14.12;61.42;101201.70;107087;1266;25255;-57
2023/01/20 11:21:49;;;;;;;15.30;5.40;;;;;;;14.07;61.52;101196.27;107159;1267;23521;-57
2023/01/20 11:24:43;;;;;;;20.00;5.80;;;;;;;14.02;61.75;101189.09;107086;1270;26682;-57
2023/01/20 11:27:15;;;;;;;10.90;5.00;;;;;;;13.98;61.89;101182.25;106594;1273;22529;-57
2023/01/20 11:29:52;;;;;;;18.50;6.40;;;;;;;13.93;62.07;101182.04;106637;1273;24250;-57
2023/01/20 11:32:36;;;;;;;13.40;5.30;;;;;;;13.89;62.23;101179.52;106250;1273;22539;-59
2023/01/20 11:35:21;;;;;;;16.60;5.50;;;;;;;13.85;62.42;101176.69;106369;1272;25354;-57
2023/01/20 11:37:48;;;;;;;9.80;4.20;;;;;;;13.82;62.73;101170.33;106320;1273;25528;-57
2023/01/20 11:40:26;;;;;;;12.00;4.90;;;;;;;13.78;62.95;101166.23;106572;1277;25526;-59
2023/01/20 11:42:53;;;;;;;12.50;5.10;;;;;;;13.75;63.06;101165.29;106680;1276;24282;-58
2023/01/20 11:45:24;;;;;;;11.50;4.40;;;;;;;13.72;63.21;101164.31;106652;1272;25418;-58
2023/01/20 11:48:09;;;;;;;15.40;5.20;;;;;;;13.66;63.42;101161.02;106437;1272;22540;-59
2023/01/20 11:50:39;;;;;;;15.80;5.40;;;;;;;13.61;63.59;101160.80;106460;1272;25449;-59
2023/01/20 11:53:18;;;;;;;14.10;4.70;;;;;;;13.58;63.81;101162.80;106416;1273;25577;-59
2023/01/20 11:55:50;;;;;;;11.70;5.00;;;;;;;13.54;63.78;101162.56;106640;1278;25424;-58
2023/01/20 11:58:31;;;;;;;11.90;4.70;;;;;;;13.51;63.88;101164.74;106548;1266;22832;-59
2023/01/20 12:01:04;;;;;;;14.90;4.80;;;;;;;13.47;64.00;101165.55;106637;1275;25421;-60
2023/01/20 12:03:43;;;;;;;12.00;4.80;;;;;;;13.44;64.10;101166.68;106511;1274;22563;-60
2023/01/20 12:06:28;;;;;;;17.80;5.40;;;;;;;13.39;64.02;101172.23;107049;1266;25651;-60
2023/01/20 12:09:15;;;;;;;13.90;4.60;;;;;;;13.33;64.21;101168.19;106905;1267;22645;-59
2023/01/20 12:12:21;;;;;;;14.40;5.10;;;;;;;13.30;64.52;101169.68;107405;1269;25546;-58
2023/01/20 12:14:53;;;;;;;15.20;5.00;;;;;;;13.29;64.65;101172.81;106995;1266;25359;-58
2023/01/20 12:17:39;;;;;;;14.50;5.20;;;;;;;13.30;64.76;101174.73;106579;1267;25414;-60
2023/01/20 12:20:27;;;;;;;13.80;5.80;;;;;;;13.30;64.88;101176.11;106646;1273;25361;-58
2023/01/20 12:23:20;;;;;;;15.60;4.90;;;;;;;13.32;64.90;101184.08;106620;1273;25360;-58
2023/01/20 12:26:14;;;;;;;9.80;4.30;;;;;;;13.34;64.85;101189.26;105920;1283;22802;-58
2023/01/20 12:29:10;;;;;;;11.80;4.30;;;;;;;13.35;64.76;101197.06;105471;1288;25403;-59
2023/01/20 12:31:38;;;;;;;12.40;5.00;;;;;;;13.37;64.79;101188.65;105593;1290;25397;-59
2023/01/20 12:34:12;;;;;;;18.70;5.20;;;;;;;13.39;64.90;101189.30;106012;1287;24025;-59
2023/01/20 12:37:22;;;;;;;14.00;5.30;;;;;;;13.41;64.94;101192.19;105760;1287;25351;-58
2023/01/20 12:40:21;;;;;;;17.00;5.20;;;;;;;13.46;64.98;101199.20;105308;1292;25354;-59
2023/01/20 12:43:17;;;;;;;18.70;9.30;;;;;;;13.51;64.93;101201.86;105073;1292;22574;-59
2023/01/20 12:45:58;;;;;;;15.20;5.90;;;;;;;13.56;64.90;101199.46;104313;1299;22697;-58
2023/01/20 12:49:00;;;;;;;12.50;5.10;;;;;;;13.61;64.64;101191.48;103921;1297;1002941;-59
2023/01/20 12:51:46;;;;;;;13.70;5.20;;;;;;;13.64;64.52;101187.55;105075;1290;25404;-59
2023/01/20 12:54:43;;;;;;;13.50;6.00;;;;;;;13.67;64.53;101187.84;105455;1292;25584;-59
2023/01/20 12:57:43;;;;;;;11.60;5.20;;;;;;;13.71;64.40;101198.87;105300;1292;25437;-60
2023/01/20 13:00:37;;;;;;;13.30;5.50;;;;;;;13.75;64.20;101203.99;105570;1292;25448;-58
2023/01/20 13:03:24;;;;;;;10.00;4.70;;;;;;;13.77;63.97;101199.94;105349;1286;25375;-59
2023/01/20 13:05:59;;;;;;;17.10;5.70;;;;;;;13.76;63.85;101196.30;106075;1272;25498;-57
2023/01/20 13:09:09;;;;;;;14.40;4.90;;;;;;;13.75;63.64;101197.54;106404;1278;25431;-59
2023/01/20 13:11:47;;;;;;;15.10;4.70;;;;;;;13.73;63.53;101202.83;105864;1277;25394;-59
2023/01/20 13:14:20;;;;;;;10.70;4.60;;;;;;;13.69;63.46;101199.29;105897;1277;25604;-57
2023/01/20 13:16:49;;;;;;;11.30;5.00;;;;;;;13.61;63.51;101193.39;106061;1277;22539;-60
2023/01/20 13:19:23;;;;;;;10.70;5.00;;;;;;;13.56;63.71;101190.22;105916;1281;24354;-60
2023/01/20 13:21:49;;;;;;;8.60;4.80;;;;;;;13.53;64.04;101187.53;106138;1274;22538;-58
2023/01/20 13:24:36;;;;;;;14.80;5.80;;;;;;;13.48;63.95;101188.19;106450;1275;22719;-59
2023/01/20 13:30:53;;;;;;;14.80;5.40;;;;;;;12.84;66.02;101177.94;105444;1285;557037;-51
2023/01/20 13:33:34;;;;;;;14.60;5.50;;;;;;;13.26;64.63;101175.52;106222;1280;22532;-50
2023/01/20 13:36:21;;;;;;;10.10;4.10;;;;;;;13.27;64.41;101177.42;106100;1280;25240;-52
2023/01/20 13:38:49;;;;;;;10.80;4.30;;;;;;;13.13;64.76;101178.65;106205;1280;22549;-53
2023/01/20 13:41:51;;;;;;;12.70;3.90;;;;;;;13.19;64.36;101173.80;105803;1288;22550;-52
2023/01/20 13:44:34;;;;;;;13.50;4.00;;;;;;;13.14;64.39;101172.20;106019;1286;229846;-50
2023/01/20 16:43:16;;;;;;;52.80;30.00;;;;;;;8.88;90.33;101199.59;105323;1281;561878;-59
2023/01/20 16:45:44;;;;;;;56.00;31.50;;;;;;;10.00;81.89;101199.64;106350;1282;22621;-59
2023/01/20 16:48:11;;;;;;;60.60;31.10;;;;;;;10.19;80.47;101195.10;105409;1282;1003824;-59
2023/01/20 16:50:38;;;;;;;47.30;27.70;;;;;;;10.28;79.84;101194.27;105217;1280;1003688;-59
2023/01/20 16:53:06;;;;;;;42.40;24.00;;;;;;;10.37;79.29;101192.24;106201;1284;24320;-59
2023/01/20 16:55:33;;;;;;;34.00;22.20;;;;;;;10.45;78.87;101188.66;106189;1280;217311;-59
2023/01/20 16:58:00;;;;;;;34.00;20.90;;;;;;;10.53;78.45;101186.98;106278;1277;25327;-59
2023/01/20 17:00:27;;;;;;;40.20;20.90;;;;;;;10.59;77.96;101186.73;106311;1280;25427;-59
2023/01/20 17:02:54;;;;;;;33.10;20.30;;;;;;;10.66;77.54;101179.15;107023;1267;25363;-58
2023/01/20 17:05:24;;;;;;;30.50;17.90;;;;;;;10.73;76.96;101182.34;107080;1267;22527;-59
2023/01/20 17:07:52;;;;;;;29.90;17.90;;;;;;;10.78;76.54;101184.50;107063;1267;22501;-59
2023/01/20 17:10:19;;;;;;;35.60;19.10;;;;;;;10.83;75.97;101186.17;107119;1271;25280;-59
2023/01/20 17:12:50;;;;;;;39.70;20.50;;;;;;;10.88;75.49;101176.89;106869;1270;25356;-58
2023/01/20 17:15:18;;;;;;;40.10;20.90;;;;;;;10.91;75.05;101174.23;106856;1267;22646;-59
2023/01/20 17:17:48;;;;;;;39.20;20.90;;;;;;;10.93;74.65;101176.09;107148;1266;23964;-59
2023/01/20 17:20:17;;;;;;;38.10;21.50;;;;;;;10.95;74.13;101173.64;107084;1266;24214;-59
2023/01/20 17:22:44;;;;;;;38.30;21.30;;;;;;;10.96;73.75;101174.85;107067;1273;22519;-58
2023/01/20 17:25:11;;;;;;;36.80;21.30;;;;;;;10.96;73.50;101178.67;106251;1267;1003353;-58
2023/01/20 17:27:39;;;;;;;39.70;23.30;;;;;;;10.96;73.14;101182.14;107042;1267;25350;-58
2023/01/20 17:30:07;;;;;;;39.10;21.60;;;;;;;10.96;72.88;101182.48;107069;1270;25477;-58
2023/01/20 17:32:34;;;;;;;38.80;20.70;;;;;;;10.96;72.57;101180.93;107080;1250;22751;-58
2023/01/20 17:35:03;;;;;;;40.30;21.00;;;;;;;10.95;72.34;101179.55;107152;1266;25488;-58
2023/01/20 17:37:30;;;;;;;36.20;19.00;;;;;;;10.93;72.14;101183.57;107029;1270;22625;-58
2023/01/20 17:39:59;;;;;;;39.90;20.00;;;;;;;10.92;72.06;101180.46;107056;1273;25418;-57
2023/01/20 17:42:26;;;;;;;44.10;22.20;;;;;;;10.90;71.91;101183.28;107126;1267;25400;-58
2023/01/20 17:44:57;;;;;;;40.50;22.00;;;;;;;10.88;71.95;101181.92;107034;1271;25488;-59
2023/01/20 17:47:24;;;;;;;35.70;19.10;;;;;;;10.88;71.86;101184.18;107045;1267;25328;-58
2023/01/20 17:49:51;;;;;;;39.40;19.60;;;;;;;10.88;71.63;101185.05;107091;1267;25433;-58
2023/01/20 17:52:21;;;;;;;47.00;22.10;;;;;;;10.87;71.57;101184.19;106868;1266;23366;-58
2023/01/20 17:54:48;;;;;;;30.30;18.60;;;;;;;10.86;71.43;101180.39;107091;1273;25391;-58
2023/01/20 17:57:15;;;;;;;39.20;19.90;;;;;;;10.85;71.32;101184.92;106823;1267;25404;-58
2023/01/20 17:59:42;;;;;;;38.90;20.40;;;;;;;10.85;71.29;101177.64;107093;1267;25490;-58
2023/01/20 18:02:10;;;;;;;39.40;19.20;;;;;;;10.83;71.36;101179.92;107147;1267;25482;-58
2023/01/20 18:04:38;;;;;;;36.90;19.80;;;;;;;10.82;71.27;101181.49;106774;1272;25493;-58
2023/01/20 18:07:06;;;;;;;37.20;20.60;;;;;;;10.81;71.36;101190.38;107070;1266;25433;-58
2023/01/20 18:09:34;;;;;;;42.50;19.60;;;;;;;10.80;71.26;101187.42;106878;1269;24728;-58
2023/01/20 18:12:02;;;;;;;34.70;19.40;;;;;;;10.79;71.29;101191.95;107247;1267;22524;-58
2023/01/20 18:14:29;;;;;;;36.20;20.50;;;;;;;10.78;71.26;101189.37;107140;1272;25397;-58
2023/01/20 18:16:56;;;;;;;33.90;20.30;;;;;;;10.76;71.25;101187.14;106901;1267;25491;-58
2023/01/20 18:19:24;;;;;;;37.60;20.90;;;;;;;10.75;71.18;101183.00;107156;1267;25341;-58
2023/01/20 18:21:51;;;;;;;35.10;19.40;;;;;;;10.75;71.16;101178.33;106348;1266;1003160;-58
2023/01/20 18:24:18;;;;;;;37.30;20.00;;;;;;;10.74;71.06;101170.69;107071;1267;24258;-59
2023/01/20 18:26:45;;;;;;;45.10;21.70;;;;;;;10.74;71.03;101167.22;106802;1272;22531;-58
2023/01/20 18:29:14;;;;;;;43.70;22.00;;;;;;;10.73;70.97;101167.77;107086;1267;23220;-58
2023/01/20 18:31:41;;;;;;;39.20;20.90;;;;;;;10.72;71.00;101167.26;107155;1267;24364;-59
2023/01/20 18:34:10;;;;;;;39.00;19.80;;;;;;;10.71;70.99;101168.31;107130;1267;25366;-58
2023/01/20 18:36:43;;;;;;;37.80;20.50;;;;;;;10.72;70.89;101166.91;106791;1270;22524;-58
2023/01/20 18:39:14;;;;;;;46.10;20.90;;;;;;;10.73;70.88;101163.61;107051;1271;25396;-58
2023/01/20 18:41:41;;;;;;;43.50;21.80;;;;;;;10.71;70.83;101163.10;107112;1266;24209;-58
2023/01/20 18:44:08;;;;;;;39.50;22.00;;;;;;;10.70;70.81;101164.51;107137;1267;25383;-58
2023/01/20 18:46:36;;;;;;;38.30;21.70;;;;;;;10.70;70.77;101161.39;106105;1274;1002975;-58
2023/01/20 18:49:04;;;;;;;42.20;21.40;;;;;;;10.70;70.85;101162.42;107124;1267;25647;-58
2023/01/20 18:51:31;;;;;;;37.30;21.20;;;;;;;10.70;70.79;101169.36;106282;1269;1003461;-59
2023/01/20 18:54:05;;;;;;;39.10;22.10;;;;;;;10.71;70.82;101177.86;107152;1267;25359;-58
2023/01/20 18:56:33;;;;;;;41.70;22.90;;;;;;;10.72;70.76;101190.16;107104;1267;22531;-58
2023/01/20 18:59:00;;;;;;;40.30;22.10;;;;;;;10.71;70.66;101188.61;107130;1267;25341;-58
2023/01/20 19:01:31;;;;;;;40.00;22.40;;;;;;;10.75;70.62;101193.42;107155;1272;25503;-58
2023/01/20 19:03:59;;;;;;;42.10;23.10;;;;;;;10.76;70.56;101189.92;107132;1266;22639;-58
2023/01/20 19:06:27;;;;;;;52.10;22.20;;;;;;;10.79;70.30;101189.71;107186;1267;25443;-59